Time;durP1;ratioP1;P1;durP2;ratioP2;P2;SDS_P1;SDS_P2;PMS_P1;PMS_P2;Temp;Humidity;BMP_temperature;BMP_pressure;BME280_temperature;BME280_humidity;BME280_pressure;Samples;Min_cycle;Max_cycle;Signal;HPM_P1;HPM_P2
2021/09/17 00:01:16;;;;;;;;;;;14.70;94.40;;;;;;5034464;28;20304;-67
2021/09/17 00:03:42;;;;;;;;;;;14.80;94.50;;;;;;5034125;28;20432;-67
2021/09/17 00:06:08;;;;;;;;;;;14.80;94.10;;;;;;5033826;28;19948;-65
2021/09/17 00:08:33;;;;;;;;;;;14.70;94.20;;;;;;5034565;28;19944;-68
2021/09/17 00:10:59;;;;;;;;;;;14.70;94.30;;;;;;5034659;28;20408;-66
2021/09/17 00:13:24;;;;;;;;;;;15.50;94.50;;;;;;5050045;28;20435;-67
2021/09/17 00:15:50;;;;;;;;;;;14.70;94.00;;;;;;5033417;28;19917;-67
2021/09/17 00:18:15;;;;;;;;;;;14.70;94.20;;;;;;5033926;28;19917;-69
2021/09/17 00:20:41;;;;;;;;;;;14.70;94.10;;;;;;5032957;28;19917;-66
2021/09/17 00:23:07;;;;;;;;;;;14.70;94.10;;;;;;5034264;28;19951;-67
2021/09/17 00:25:33;;;;;;;;;;;14.70;93.90;;;;;;5033210;28;19917;-67
2021/09/17 00:27:58;;;;;;;;;;;14.70;94.00;;;;;;5033697;28;19917;-66
2021/09/17 00:30:28;;;;;;;;;;;14.70;94.00;;;;;;5032435;28;21267;-65
2021/09/17 00:32:54;;;;;;;;;;;14.70;93.90;;;;;;5032616;28;20385;-66
2021/09/17 00:35:20;;;;;;;;;;;14.70;93.70;;;;;;5032231;28;19924;-66
2021/09/17 00:37:45;;;;;;;;;;;14.70;93.90;;;;;;5014241;28;19917;-65
2021/09/17 00:40:11;;;;;;;;;;;14.80;93.90;;;;;;5032383;28;20001;-65
2021/09/17 00:42:38;;;;;;;;;;;14.70;93.80;;;;;;5031923;28;19956;-66
2021/09/17 00:45:05;;;;;;;;;;;14.70;93.50;;;;;;5031976;28;20008;-65
2021/09/17 00:47:31;;;;;;;;;;;14.70;93.70;;;;;;5031799;28;19971;-66
2021/09/17 00:49:57;;;;;;;;;;;14.70;93.60;;;;;;5032299;28;19925;-65
2021/09/17 00:52:22;;;;;;;;;;;14.70;93.50;;;;;;5031447;28;19948;-65
2021/09/17 00:54:48;;;;;;;;;;;14.70;93.30;;;;;;5031745;28;19987;-66
2021/09/17 00:57:14;;;;;;;;;;;14.70;93.50;;;;;;5031894;28;19986;-66
2021/09/17 00:59:39;;;;;;;;;;;14.70;93.50;;;;;;5031627;28;19917;-65
2021/09/17 01:02:05;;;;;;;;;;;14.80;93.40;;;;;;5031703;28;19921;-66
2021/09/17 01:04:30;;;;;;;;;;;14.70;93.30;;;;;;5013581;28;19928;-65
2021/09/17 01:06:56;;;;;;;;;;;14.70;93.10;;;;;;5031942;28;19945;-65
2021/09/17 01:09:21;;;;;;;;;;;14.70;93.20;;;;;;5031539;28;19917;-66
2021/09/17 01:11:47;;;;;;;;;;;14.70;93.20;;;;;;5031839;28;20369;-65
2021/09/17 01:14:13;;;;;;;;;;;14.70;93.20;;;;;;5031338;28;20390;-66
2021/09/17 01:16:39;;;;;;;;;;;14.70;92.90;;;;;;5031693;28;20389;-66
2021/09/17 01:19:04;;;;;;;;;;;14.70;93.10;;;;;;5031842;28;20004;-65
2021/09/17 01:21:30;;;;;;;;;;;14.70;93.10;;;;;;5034683;28;19921;-66
2021/09/17 01:23:55;;;;;;;;;;;14.70;93.10;;;;;;5035236;28;20372;-64
2021/09/17 01:26:21;;;;;;;;;;;14.70;92.90;;;;;;5032833;28;20705;-67
2021/09/17 01:28:46;;;;;;;;;;;14.70;93.00;;;;;;5032869;28;19928;-67
2021/09/17 01:31:12;;;;;;;;;;;14.70;93.00;;;;;;5032510;28;19921;-66
2021/09/17 01:33:37;;;;;;;;;;;14.80;93.00;;;;;;5032878;28;20327;-65
2021/09/17 01:36:07;;;;;;;;;;;14.70;92.70;;;;;;5032830;28;19917;-66
2021/09/17 01:38:34;;;;;;;;;;;14.70;92.90;;;;;;5033737;28;20385;-66
2021/09/17 01:40:59;;;;;;;;;;;14.70;92.90;;;;;;5033784;28;19972;-67
2021/09/17 01:43:25;;;;;;;;;;;14.70;92.70;;;;;;5032072;28;19921;-65
2021/09/17 01:45:51;;;;;;;;;;;14.70;92.70;;;;;;5032528;28;19917;-65
2021/09/17 01:48:17;;;;;;;;;;;14.70;92.80;;;;;;5031438;28;20344;-65
2021/09/17 01:50:43;;;;;;;;;;;14.70;92.70;;;;;;5033120;28;20357;-66
2021/09/17 01:56:37;;;;;;;;;;;14.70;92.50;;;;;;5034681;28;19947;-65
2021/09/17 01:59:03;;;;;;;;;;;14.70;92.70;;;;;;5035389;28;19917;-66
2021/09/17 02:01:29;;;;;;;;;;;14.70;92.60;;;;;;5034952;28;19917;-66
2021/09/17 02:03:54;;;;;;;;;;;14.70;92.60;;;;;;5035171;28;20015;-65
2021/09/17 02:06:21;;;;;;;;;;;14.70;92.40;;;;;;5034319;28;20281;-64
2021/09/17 02:08:46;;;;;;;;;;;14.70;92.60;;;;;;5035304;28;19971;-65
2021/09/17 02:11:12;;;;;;;;;;;14.70;92.50;;;;;;5034493;28;19917;-66
2021/09/17 02:13:37;;;;;;;;;;;14.70;92.50;;;;;;5035168;28;19924;-66
2021/09/17 02:16:03;;;;;;;;;;;14.70;92.30;;;;;;5034941;28;20417;-65
2021/09/17 02:18:29;;;;;;;;;;;14.70;92.40;;;;;;5049855;28;20008;-65
2021/09/17 02:20:54;;;;;;;;;;;14.70;92.40;;;;;;5035034;28;19917;-66
2021/09/17 02:23:20;;;;;;;;;;;14.60;92.40;;;;;;5034404;28;19956;-65
2021/09/17 02:25:45;;;;;;;;;;;14.60;92.10;;;;;;5034451;28;19967;-66
2021/09/17 02:28:11;;;;;;;;;;;14.60;92.30;;;;;;5034505;28;19921;-66
2021/09/17 02:30:36;;;;;;;;;;;14.60;92.30;;;;;;5017259;28;19921;-64
2021/09/17 02:33:02;;;;;;;;;;;14.60;92.20;;;;;;5034723;28;19924;-65
2021/09/17 02:35:27;;;;;;;;;;;14.60;92.00;;;;;;5033920;28;20008;-66
2021/09/17 02:37:53;;;;;;;;;;;14.60;92.20;;;;;;5017024;28;20312;-65
2021/09/17 02:40:18;;;;;;;;;;;14.60;92.20;;;;;;5034206;28;20447;-65
2021/09/17 02:42:45;;;;;;;;;;;14.60;92.10;;;;;;5034712;28;20443;-66
2021/09/17 02:45:10;;;;;;;;;;;14.60;91.80;;;;;;5033843;28;19925;-66
2021/09/17 02:47:36;;;;;;;;;;;14.60;92.00;;;;;;5034630;28;20282;-65
2021/09/17 02:50:02;;;;;;;;;;;14.60;92.00;;;;;;5034370;28;19917;-66
2021/09/17 02:52:28;;;;;;;;;;;14.60;91.90;;;;;;5034566;28;19969;-65
2021/09/17 02:54:53;;;;;;;;;;;14.60;91.80;;;;;;5033805;28;20439;-66
2021/09/17 02:57:19;;;;;;;;;;;14.50;91.90;;;;;;5033978;28;19944;-65
2021/09/17 02:59:45;;;;;;;;;;;14.50;91.90;;;;;;5034284;28;20004;-66
2021/09/17 03:02:12;;;;;;;;;;;14.50;91.90;;;;;;5015782;28;20483;-64
2021/09/17 03:04:37;;;;;;;;;;;14.60;91.90;;;;;;5049236;28;20013;-65
2021/09/17 03:07:03;;;;;;;;;;;14.50;91.70;;;;;;5033973;28;20031;-63
2021/09/17 03:09:28;;;;;;;;;;;14.60;91.80;;;;;;5034153;28;19917;-64
2021/09/17 03:11:54;;;;;;;;;;;14.60;91.80;;;;;;5033728;28;20353;-65
2021/09/17 03:14:20;;;;;;;;;;;14.60;91.80;;;;;;5033727;28;19924;-64
2021/09/17 03:16:45;;;;;;;;;;;14.50;91.60;;;;;;5033848;28;20452;-64
2021/09/17 03:19:11;;;;;;;;;;;14.50;91.90;;;;;;5033611;28;19918;-63
2021/09/17 03:21:36;;;;;;;;;;;14.50;91.70;;;;;;5036362;28;19964;-65
2021/09/17 03:24:02;;;;;;;;;;;14.50;91.80;;;;;;5033155;28;19921;-65
2021/09/17 03:26:28;;;;;;;;;;;14.50;91.50;;;;;;5032899;28;19917;-64
2021/09/17 03:28:53;;;;;;;;;;;14.50;91.70;;;;;;5033406;28;19917;-64
2021/09/17 03:31:19;;;;;;;;;;;14.50;91.60;;;;;;5033859;28;19957;-64
2021/09/17 03:33:44;;;;;;;;;;;14.40;91.60;;;;;;5033308;28;20047;-64
2021/09/17 03:36:10;;;;;;;;;;;14.40;91.40;;;;;;5033325;28;20045;-65
2021/09/17 03:38:35;;;;;;;;;;;14.40;91.50;;;;;;5033339;28;19924;-64
2021/09/17 03:41:02;;;;;;;;;;;14.40;91.50;;;;;;5033048;28;19925;-64
2021/09/17 03:43:27;;;;;;;;;;;14.40;91.50;;;;;;5033363;28;20285;-63
2021/09/17 03:45:53;;;;;;;;;;;14.30;91.20;;;;;;5032587;28;19943;-64
2021/09/17 03:48:18;;;;;;;;;;;14.30;91.40;;;;;;5033335;28;19945;-64
2021/09/17 03:50:44;;;;;;;;;;;14.30;91.30;;;;;;5032929;28;20006;-64
2021/09/17 03:53:10;;;;;;;;;;;14.30;91.30;;;;;;5033259;28;19917;-64
2021/09/17 03:55:36;;;;;;;;;;;14.30;91.00;;;;;;5032330;28;19917;-65
2021/09/17 03:58:02;;;;;;;;;;;14.30;91.20;;;;;;5033213;28;19924;-64
2021/09/17 04:00:28;;;;;;;;;;;14.30;91.20;;;;;;5033061;28;20003;-63
2021/09/17 04:02:53;;;;;;;;;;;14.30;91.20;;;;;;5032588;28;20355;-64
2021/09/17 04:05:19;;;;;;;;;;;14.20;90.90;;;;;;5032490;28;19917;-62
2021/09/17 04:07:44;;;;;;;;;;;14.20;91.00;;;;;;5032513;28;19917;-65
2021/09/17 04:10:12;;;;;;;;;;;14.20;91.00;;;;;;5032881;28;20495;-64
2021/09/17 04:12:37;;;;;;;;;;;14.30;91.10;;;;;;5031890;28;19928;-65
2021/09/17 04:15:03;;;;;;;;;;;14.20;90.70;;;;;;5032254;28;19917;-64
2021/09/17 04:17:29;;;;;;;;;;;14.30;90.90;;;;;;5032281;28;19959;-65
2021/09/17 04:19:54;;;;;;;;;;;14.20;90.90;;;;;;5032758;28;20297;-63
2021/09/17 04:22:20;;;;;;;;;;;14.20;90.80;;;;;;5031771;28;19921;-64
2021/09/17 04:24:45;;;;;;;;;;;14.20;90.70;;;;;;5032493;28;19940;-65
2021/09/17 04:27:11;;;;;;;;;;;14.10;90.50;;;;;;5032413;28;19917;-63
2021/09/17 04:29:36;;;;;;;;;;;14.20;90.70;;;;;;5032111;28;19966;-64
2021/09/17 04:32:02;;;;;;;;;;;14.20;90.70;;;;;;5032488;28;20381;-63
2021/09/17 04:34:28;;;;;;;;;;;14.10;90.60;;;;;;5031629;28;19936;-64
2021/09/17 04:36:53;;;;;;;;;;;14.10;90.40;;;;;;5032212;28;19917;-64
2021/09/17 04:39:19;;;;;;;;;;;14.10;90.60;;;;;;5031814;28;19996;-63
2021/09/17 04:41:44;;;;;;;;;;;14.10;90.50;;;;;;5032245;28;20016;-63
2021/09/17 04:44:10;;;;;;;;;;;14.10;90.50;;;;;;5031871;28;20028;-63
2021/09/17 04:46:35;;;;;;;;;;;14.10;90.30;;;;;;5014338;28;20002;-64
2021/09/17 04:49:01;;;;;;;;;;;14.10;90.40;;;;;;5032153;28;19923;-63
2021/09/17 04:51:27;;;;;;;;;;;14.10;90.40;;;;;;5031695;28;19917;-63
2021/09/17 04:53:52;;;;;;;;;;;14.00;90.40;;;;;;5014470;28;19987;-64
2021/09/17 04:56:18;;;;;;;;;;;14.00;90.20;;;;;;5031355;28;19968;-64
2021/09/17 04:58:44;;;;;;;;;;;14.10;90.40;;;;;;5032126;28;19979;-64
2021/09/17 05:01:09;;;;;;;;;;;14.00;90.30;;;;;;5031604;28;19964;-63
2021/09/17 05:03:35;;;;;;;;;;;14.00;90.30;;;;;;5032109;28;19925;-65
2021/09/17 05:06:00;;;;;;;;;;;14.00;90.10;;;;;;5031413;28;19921;-64
2021/09/17 05:08:26;;;;;;;;;;;14.00;90.20;;;;;;5031447;28;19925;-64
2021/09/17 05:10:51;;;;;;;;;;;14.00;90.20;;;;;;5031896;28;19987;-64
2021/09/17 05:13:17;;;;;;;;;;;14.00;90.20;;;;;;5031505;28;20403;-64
2021/09/17 05:15:43;;;;;;;;;;;13.90;90.00;;;;;;5031505;28;20020;-64
2021/09/17 05:18:08;;;;;;;;;;;13.90;90.20;;;;;;5031323;28;19918;-64
2021/09/17 05:20:34;;;;;;;;;;;14.00;90.20;;;;;;5031815;28;19917;-63
2021/09/17 05:22:59;;;;;;;;;;;14.00;90.20;;;;;;5031258;28;19921;-65
2021/09/17 05:25:25;;;;;;;;;;;14.00;90.00;;;;;;5036203;28;19925;-64
2021/09/17 05:27:50;;;;;;;;;;;14.10;90.20;;;;;;5038343;28;19940;-64
2021/09/17 05:30:16;;;;;;;;;;;14.10;90.20;;;;;;5038071;28;20026;-64
2021/09/17 05:32:42;;;;;;;;;;;14.10;90.10;;;;;;5038388;28;19918;-63
2021/09/17 05:35:08;;;;;;;;;;;14.10;89.70;;;;;;5037483;28;19921;-65
2021/09/17 05:37:33;;;;;;;;;;;14.20;90.10;;;;;;5037746;28;19917;-64
2021/09/17 05:39:59;;;;;;;;;;;14.20;90.00;;;;;;5037817;28;19941;-65
2021/09/17 05:42:25;;;;;;;;;;;14.20;90.00;;;;;;5038164;28;20355;-64
2021/09/17 05:44:50;;;;;;;;;;;14.40;89.50;;;;;;5019617;28;19917;-65
2021/09/17 05:47:16;;;;;;;;;;;14.40;89.90;;;;;;5038389;28;19917;-65
2021/09/17 05:49:42;;;;;;;;;;;14.40;89.50;;;;;;5027088;28;19925;-64
2021/09/17 05:52:07;;;;;;;;;;;14.50;89.40;;;;;;5046543;28;19944;-66
2021/09/17 05:54:33;;;;;;;;;;;14.60;89.50;;;;;;5057792;28;20384;-65
2021/09/17 05:56:59;;;;;;;;;;;14.60;88.90;;;;;;5057517;28;20357;-64
2021/09/17 05:59:24;;;;;;;;;;;14.70;89.00;;;;;;5058176;28;19916;-65
2021/09/17 06:01:50;;;;;;;;;;;14.70;88.50;;;;;;5057543;28;20399;-65
2021/09/17 06:04:16;;;;;;;;;;;14.60;88.10;;;;;;5057947;28;19917;-64
2021/09/17 06:06:41;;;;;;;;;;;14.60;88.10;;;;;;5056987;28;20386;-64
2021/09/17 06:09:07;;;;;;;;;;;14.70;88.40;;;;;;5049159;28;19925;-65
2021/09/17 06:11:32;;;;;;;;;;;14.70;88.00;;;;;;5043897;28;19914;-64
2021/09/17 06:13:58;;;;;;;;;;;14.70;87.70;;;;;;5036999;28;19998;-65
2021/09/17 06:16:23;;;;;;;;;;;14.60;87.30;;;;;;5037377;28;19917;-65
2021/09/17 06:18:49;;;;;;;;;;;14.60;87.80;;;;;;5037521;28;20369;-65
2021/09/17 06:21:15;;;;;;;;;;;14.60;87.30;;;;;;5037659;28;20332;-65
2021/09/17 06:23:41;;;;;;;;;;;14.50;86.70;;;;;;5036177;28;19990;-65
2021/09/17 06:26:08;;;;;;;;;;;14.40;86.50;;;;;;5057558;28;19917;-65
2021/09/17 06:28:33;;;;;;;;;;;14.40;86.90;;;;;;5057225;28;20423;-64
2021/09/17 06:30:59;;;;;;;;;;;14.30;86.80;;;;;;5057782;28;19921;-64
2021/09/17 06:33:24;;;;;;;;;;;14.20;87.00;;;;;;5057616;28;20008;-64
2021/09/17 06:35:50;;;;;;;;;;;14.20;86.70;;;;;;5055304;28;19940;-63
2021/09/17 06:38:15;;;;;;;;;;;14.20;87.00;;;;;;5053934;28;19928;-63
2021/09/17 06:40:41;;;;;;;;;;;14.20;87.20;;;;;;5023860;28;19917;-64
2021/09/17 06:43:06;;;;;;;;;;;14.20;87.50;;;;;;5025162;28;20376;-65
2021/09/17 06:45:32;;;;;;;;;;;14.50;88.20;;;;;;5043244;28;19917;-65
2021/09/17 06:47:58;;;;;;;;;;;14.60;88.60;;;;;;5024968;28;19967;-65
2021/09/17 06:50:25;;;;;;;;;;;14.70;88.10;;;;;;5043606;28;20055;-65
2021/09/17 06:52:52;;;;;;;;;;;15.00;88.40;;;;;;5059842;28;19924;-65
2021/09/17 06:55:19;;;;;;;;;;;15.80;90.80;;;;;;5041690;28;19917;-66
2021/09/17 06:57:49;;;;;;;;;;;17.70;93.30;;;;;;5043907;28;19917;-64
2021/09/17 07:00:15;;;;;;;;;;;19.80;92.40;;;;;;5044468;28;19990;-65
2021/09/17 07:02:41;;;;;;;;;;;21.80;91.30;;;;;;5042231;28;19921;-64
2021/09/17 07:05:07;;;;;;;;;;;23.60;86.50;;;;;;5042849;28;19932;-64
2021/09/17 07:07:32;;;;;;;;;;;25.00;83.00;;;;;;5043835;28;20324;-65
2021/09/17 07:09:58;;;;;;;;;;;26.00;78.50;;;;;;5042278;28;20011;-64
2021/09/17 07:12:23;;;;;;;;;;;27.00;73.40;;;;;;5025520;28;19913;-65
2021/09/17 07:14:49;;;;;;;;;;;27.90;70.00;;;;;;5043260;28;19944;-65
2021/09/17 07:17:15;;;;;;;;;;;28.60;67.10;;;;;;5041577;28;19921;-64
2021/09/17 07:19:40;;;;;;;;;;;29.10;62.80;;;;;;5026237;28;19916;-64
2021/09/17 07:22:07;;;;;;;;;;;29.60;60.40;;;;;;5042883;28;19940;-64
2021/09/17 07:24:32;;;;;;;;;;;30.10;57.70;;;;;;5041698;28;20255;-64
2021/09/17 07:26:58;;;;;;;;;;;30.40;55.70;;;;;;5043905;28;19970;-65
2021/09/17 07:29:23;;;;;;;;;;;31.00;54.70;;;;;;5042204;28;19964;-64
2021/09/17 07:31:49;;;;;;;;;;;31.50;52.60;;;;;;5042597;28;19924;-64
2021/09/17 07:34:14;;;;;;;;;;;32.10;51.00;;;;;;5043223;28;19924;-65
2021/09/17 07:36:40;;;;;;;;;;;32.40;48.40;;;;;;5024030;28;19971;-65
2021/09/17 07:39:05;;;;;;;;;;;32.20;47.10;;;;;;5042503;28;19952;-64
2021/09/17 07:41:31;;;;;;;;;;;32.20;45.00;;;;;;5043536;28;19917;-64
2021/09/17 07:43:57;;;;;;;;;;;32.30;44.40;;;;;;5041517;28;20531;-64
2021/09/17 07:46:22;;;;;;;;;;;32.50;44.70;;;;;;5042535;28;20388;-64
2021/09/17 07:48:48;;;;;;;;;;;33.30;44.00;;;;;;5041402;28;19917;-64
2021/09/17 07:51:13;;;;;;;;;;;33.90;42.80;;;;;;5041231;28;20389;-64
2021/09/17 07:53:39;;;;;;;;;;;34.30;41.50;;;;;;5043633;28;19986;-64
2021/09/17 07:56:04;;;;;;;;;;;34.30;39.80;;;;;;5041231;28;20292;-64
2021/09/17 07:58:30;;;;;;;;;;;34.30;39.50;;;;;;5042166;28;20452;-64
2021/09/17 08:00:55;;;;;;;;;;;34.50;39.10;;;;;;5043048;28;19953;-65
2021/09/17 08:03:23;;;;;;;;;;;34.80;38.60;;;;;;5041518;28;20020;-64
2021/09/17 08:05:49;;;;;;;;;;;35.10;38.30;;;;;;5041121;28;20438;-64
2021/09/17 08:08:14;;;;;;;;;;;35.50;37.30;;;;;;5043108;28;20012;-65
2021/09/17 08:10:40;;;;;;;;;;;35.80;36.80;;;;;;5043292;28;20343;-64
2021/09/17 08:13:06;;;;;;;;;;;36.20;35.80;;;;;;5023121;28;20373;-68
2021/09/17 08:15:31;;;;;;;;;;;35.90;34.50;;;;;;5040686;28;19947;-64
2021/09/17 08:17:57;;;;;;;;;;;35.50;34.50;;;;;;5042090;28;20012;-64
2021/09/17 08:20:22;;;;;;;;;;;35.70;34.60;;;;;;5040070;28;19917;-64
2021/09/17 08:22:48;;;;;;;;;;;35.90;34.00;;;;;;5040380;28;19921;-65
2021/09/17 08:25:13;;;;;;;;;;;35.80;33.10;;;;;;5042176;28;19933;-64
2021/09/17 08:27:39;;;;;;;;;;;35.90;33.90;;;;;;5040031;28;19944;-64
2021/09/17 08:30:06;;;;;;;;;;;36.50;33.40;;;;;;5048856;28;19917;-65
2021/09/17 08:32:32;;;;;;;;;;;36.70;32.30;;;;;;5050940;28;20261;-65
2021/09/17 08:34:59;;;;;;;;;;;36.60;31.90;;;;;;5050826;28;19917;-65
2021/09/17 08:37:25;;;;;;;;;;;36.00;30.70;;;;;;5031878;28;20385;-64
2021/09/17 08:39:51;;;;;;;;;;;35.60;32.50;;;;;;5045378;28;20307;-64
2021/09/17 08:42:18;;;;;;;;;;;36.00;32.50;;;;;;5051712;28;20292;-64
2021/09/17 08:44:43;;;;;;;;;;;36.20;31.50;;;;;;5051032;28;19917;-64
2021/09/17 08:47:14;;;;;;;;;;;36.40;32.10;;;;;;5051862;28;20376;-65
2021/09/17 08:49:40;;;;;;;;;;;36.30;30.70;;;;;;5051443;28;19943;-65
2021/09/17 08:52:06;;;;;;;;;;;35.90;31.20;;;;;;5052070;28;19959;-64
2021/09/17 08:54:33;;;;;;;;;;;36.00;31.70;;;;;;5041010;28;20192;-65
2021/09/17 08:56:59;;;;;;;;;;;34.50;29.80;;;;;;5031966;28;19971;-65
2021/09/17 08:59:24;;;;;;;;;;;33.60;31.40;;;;;;5031482;28;20392;-65
2021/09/17 09:01:50;;;;;;;;;;;33.10;32.60;;;;;;5031476;28;19924;-64
2021/09/17 09:04:15;;;;;;;;;;;32.30;31.70;;;;;;5031701;28;19921;-64
2021/09/17 09:06:42;;;;;;;;;;;31.00;31.80;;;;;;5031469;28;19952;-64
2021/09/17 09:09:15;;;;;;;;;;;30.30;33.00;;;;;;5031683;28;19988;-63
2021/09/17 09:11:41;;;;;;;;;;;29.50;32.80;;;;;;5031409;28;20027;-63
2021/09/17 09:14:08;;;;;;;;;;;28.20;34.10;;;;;;5031688;28;19921;-63
2021/09/17 09:16:34;;;;;;;;;;;27.30;34.50;;;;;;5030850;28;19921;-62
2021/09/17 09:19:20;;;;;;;;;;;26.10;34.80;;;;;;5034369;28;19967;-63
2021/09/17 09:21:46;;;;;;;;;;;26.60;40.50;;;;;;5031201;28;19917;-64
2021/09/17 09:24:13;;;;;;;;;;;28.70;40.70;;;;;;5031528;28;20301;-64
2021/09/17 09:26:39;;;;;;;;;;;31.80;40.50;;;;;;5030868;28;19917;-65
2021/09/17 09:29:04;;;;;;;;;;;34.00;37.20;;;;;;5031642;28;19940;-64
2021/09/17 09:31:41;;;;;;;;;;;34.50;33.30;;;;;;5031639;28;20285;-63
2021/09/17 09:34:06;;;;;;;;;;;33.70;32.40;;;;;;5031402;28;19921;-64
2021/09/17 09:36:35;;;;;;;;;;;32.80;32.50;;;;;;5031116;28;19940;-63
2021/09/17 09:39:02;;;;;;;;;;;31.80;32.40;;;;;;5040215;28;19917;-64
2021/09/17 09:41:29;;;;;;;;;;;30.10;32.50;;;;;;5052438;28;19921;-63
2021/09/17 09:43:56;;;;;;;;;;;28.40;33.30;;;;;;5069218;28;19928;-63
2021/09/17 09:46:23;;;;;;;;;;;26.30;34.50;;;;;;5069179;28;19917;-64
2021/09/17 09:48:58;;;;;;;;;;;25.50;35.40;;;;;;5069890;28;19928;-61
2021/09/17 09:51:24;;;;;;;;;;;24.40;37.00;;;;;;5070957;28;20498;-63
2021/09/17 09:53:50;;;;;;;;;;;23.60;38.60;;;;;;5070814;28;19916;-63
2021/09/17 09:56:16;;;;;;;;;;;22.50;39.30;;;;;;5070866;28;20387;-63
2021/09/17 09:58:41;;;;;;;;;;;22.10;40.50;;;;;;5070764;28;19940;-62
2021/09/17 10:01:07;;;;;;;;;;;21.80;42.20;;;;;;5071357;28;20292;-64
2021/09/17 10:03:33;;;;;;;;;;;21.80;43.60;;;;;;5070694;28;20011;-64
2021/09/17 10:05:58;;;;;;;;;;;22.70;44.00;;;;;;5070763;28;19951;-64
2021/09/17 10:08:24;;;;;;;;;;;22.30;44.90;;;;;;5071033;28;19920;-63
2021/09/17 10:10:50;;;;;;;;;;;22.40;44.10;;;;;;5052875;28;19976;-63
2021/09/17 10:13:15;;;;;;;;;;;22.20;43.60;;;;;;5074820;28;19919;-64
2021/09/17 10:15:41;;;;;;;;;;;21.90;43.80;;;;;;5074179;28;19916;-63
2021/09/17 10:18:06;;;;;;;;;;;21.70;45.30;;;;;;5074768;28;19917;-64
2021/09/17 10:20:38;;;;;;;;;;;21.60;45.20;;;;;;5074402;28;19920;-63
2021/09/17 10:23:22;;;;;;;;;;;21.30;45.20;;;;;;5074646;28;19939;-63
2021/09/17 10:25:57;;;;;;;;;;;20.80;46.10;;;;;;5056017;28;19917;-64
2021/09/17 10:28:22;;;;;;;;;;;20.70;46.90;;;;;;5074524;28;19928;-63
2021/09/17 10:30:48;;;;;;;;;;;20.40;47.30;;;;;;5074159;28;20401;-62
2021/09/17 10:33:26;;;;;;;;;;;20.10;47.60;;;;;;5072625;28;19917;-63
2021/09/17 10:35:52;;;;;;;;;;;19.80;48.30;;;;;;5055243;28;19923;-63
2021/09/17 10:38:19;;;;;;;;;;;19.70;49.10;;;;;;5058627;28;20015;-64
2021/09/17 10:40:44;;;;;;;;;;;19.60;49.70;;;;;;5067459;28;19917;-64
2021/09/17 10:43:10;;;;;;;;;;;19.60;49.90;;;;;;5054132;28;19970;-64
2021/09/17 10:45:39;;;;;;;;;;;19.40;50.30;;;;;;5053351;28;19913;-64
2021/09/17 10:48:07;;;;;;;;;;;19.40;50.80;;;;;;5054274;28;19917;-65
2021/09/17 10:50:40;;;;;;;;;;;19.50;51.70;;;;;;5053642;28;19943;-65
2021/09/17 10:53:06;;;;;;;;;;;19.60;51.80;;;;;;5036358;28;19940;-64
2021/09/17 10:55:43;;;;;;;;;;;19.60;51.40;;;;;;5053550;28;20389;-64
2021/09/17 10:58:28;;;;;;;;;;;19.70;52.00;;;;;;5036064;28;19916;-65
2021/09/17 11:00:55;;;;;;;;;;;19.70;52.50;;;;;;5047398;28;20007;-65
2021/09/17 11:03:39;;;;;;;;;;;19.80;52.10;;;;;;5035659;28;20239;-64
2021/09/17 11:06:31;;;;;;;;;;;19.90;52.20;;;;;;5052232;28;19921;-65
2021/09/17 11:09:02;;;;;;;;;;;19.90;52.60;;;;;;5053264;28;20070;-65
2021/09/17 11:11:27;;;;;;;;;;;20.00;52.70;;;;;;5052880;28;19920;-64
2021/09/17 11:13:54;;;;;;;;;;;20.00;52.60;;;;;;5053001;28;20384;-63
2021/09/17 11:16:21;;;;;;;;;;;20.10;51.70;;;;;;5051844;28;19939;-64
2021/09/17 11:18:50;;;;;;;;;;;20.00;52.60;;;;;;5053225;28;19936;-64
2021/09/17 11:21:17;;;;;;;;;;;20.10;52.90;;;;;;5051572;28;20392;-64
2021/09/17 11:23:45;;;;;;;;;;;20.10;52.70;;;;;;5052695;28;20021;-64
2021/09/17 11:26:10;;;;;;;;;;;20.30;53.30;;;;;;5052489;28;19924;-65
2021/09/17 11:28:36;;;;;;;;;;;20.40;53.90;;;;;;5053386;28;19917;-65
2021/09/17 11:31:08;;;;;;;;;;;20.70;54.10;;;;;;5052777;28;19959;-65
2021/09/17 11:33:34;;;;;;;;;;;21.00;54.10;;;;;;5052854;28;19924;-65
2021/09/17 11:35:59;;;;;;;;;;;21.10;53.30;;;;;;5052741;28;19917;-65
2021/09/17 11:38:25;;;;;;;;;;;21.00;52.70;;;;;;5052791;28;19917;-63
2021/09/17 11:40:52;;;;;;;;;;;20.90;51.80;;;;;;5053584;28;19917;-65
2021/09/17 11:43:18;;;;;;;;;;;21.20;52.20;;;;;;5052556;28;19927;-65
2021/09/17 11:45:48;;;;;;;;;;;19.40;52.60;;;;;;5049620;28;19917;-63
2021/09/17 11:48:21;;;;;;;;;;;19.20;53.30;;;;;;5050719;28;19980;-66
2021/09/17 11:50:47;;;;;;;;;;;18.80;53.80;;;;;;5032600;28;19917;-65
2021/09/17 11:53:13;;;;;;;;;;;18.50;54.50;;;;;;5032221;28;19924;-65
2021/09/17 11:55:39;;;;;;;;;;;18.10;55.60;;;;;;5035050;28;20262;-64
2021/09/17 11:58:04;;;;;;;;;;;18.10;56.30;;;;;;5033482;28;19913;-63
2021/09/17 12:00:30;;;;;;;;;;;18.00;56.80;;;;;;5053044;28;19921;-64
2021/09/17 12:03:02;;;;;;;;;;;17.90;57.40;;;;;;5051565;28;19921;-65
2021/09/17 12:05:29;;;;;;;;;;;18.00;58.30;;;;;;5048613;28;20402;-63
2021/09/17 12:07:54;;;;;;;;;;;18.20;58.80;;;;;;5051788;28;19963;-65
2021/09/17 12:10:24;;;;;;;;;;;18.40;58.80;;;;;;5051760;28;19916;-66
2021/09/17 12:12:50;;;;;;;;;;;18.60;58.70;;;;;;5052282;28;19917;-64
2021/09/17 12:15:25;;;;;;;;;;;18.60;58.30;;;;;;5051115;28;20331;-63
2021/09/17 12:17:56;;;;;;;;;;;18.60;58.10;;;;;;5051935;28;20000;-65
2021/09/17 12:20:22;;;;;;;;;;;18.50;57.80;;;;;;5051393;28;19981;-65
2021/09/17 12:22:55;;;;;;;;;;;18.40;58.00;;;;;;5052039;28;19932;-64
2021/09/17 12:25:25;;;;;;;;;;;18.30;58.60;;;;;;5051068;28;19917;-66
2021/09/17 12:27:55;;;;;;;;;;;18.30;58.90;;;;;;5033989;28;19920;-65
2021/09/17 12:30:21;;;;;;;;;;;18.40;59.00;;;;;;5051360;28;20317;-65
2021/09/17 12:33:05;;;;;;;;;;;18.50;59.30;;;;;;5051937;28;19916;-64
2021/09/17 12:35:31;;;;;;;;;;;18.60;59.70;;;;;;5049020;28;19928;-64
2021/09/17 12:37:58;;;;;;;;;;;18.80;59.70;;;;;;5051012;28;20293;-65
2021/09/17 12:40:28;;;;;;;;;;;18.80;58.70;;;;;;5050643;28;19924;-65
2021/09/17 12:43:19;;;;;;;;;;;18.70;58.80;;;;;;5051521;28;20009;-65
2021/09/17 12:45:59;;;;;;;;;;;18.70;59.00;;;;;;5011861;28;19917;-65
2021/09/17 12:48:24;;;;;;;;;;;18.60;59.10;;;;;;5050306;28;20042;-66
2021/09/17 12:50:50;;;;;;;;;;;18.50;59.10;;;;;;5051641;28;19959;-66
2021/09/17 12:53:17;;;;;;;;;;;18.40;59.60;;;;;;5051711;28;19921;-64
2021/09/17 12:55:45;;;;;;;;;;;18.40;60.20;;;;;;5033227;28;19917;-65
2021/09/17 12:58:18;;;;;;;;;;;18.50;60.50;;;;;;5052063;28;19917;-65
2021/09/17 13:00:48;;;;;;;;;;;18.70;61.00;;;;;;5047318;28;19931;-65
2021/09/17 13:03:15;;;;;;;;;;;19.00;60.40;;;;;;5050448;28;20007;-65
2021/09/17 13:05:42;;;;;;;;;;;19.00;59.50;;;;;;5050823;28;19917;-66
2021/09/17 13:08:08;;;;;;;;;;;18.90;60.10;;;;;;5051510;28;20307;-65
2021/09/17 13:10:34;;;;;;;;;;;19.00;60.00;;;;;;5051073;28;19917;-64
2021/09/17 13:13:00;;;;;;;;;;;18.90;59.80;;;;;;5051530;28;19917;-65
2021/09/17 13:15:26;;;;;;;;;;;18.80;59.90;;;;;;5050642;28;19924;-63
2021/09/17 13:17:52;;;;;;;;;;;18.70;60.10;;;;;;5051598;28;19956;-65
2021/09/17 13:20:18;;;;;;;;;;;18.70;59.70;;;;;;5050901;28;19981;-66
2021/09/17 13:22:43;;;;;;;;;;;18.60;60.40;;;;;;5051529;28;19978;-65
2021/09/17 13:25:10;;;;;;;;;;;18.60;61.10;;;;;;5050852;28;19917;-64
2021/09/17 13:27:36;;;;;;;;;;;18.60;60.40;;;;;;5051026;28;19942;-65
2021/09/17 13:30:04;;;;;;;;;;;18.50;60.00;;;;;;5051515;28;19921;-64
2021/09/17 13:32:29;;;;;;;;;;;18.30;60.00;;;;;;5051027;28;19981;-64
2021/09/17 13:34:57;;;;;;;;;;;18.10;60.10;;;;;;5051091;28;20533;-65
2021/09/17 13:37:23;;;;;;;;;;;18.00;60.20;;;;;;5050737;28;19932;-65
2021/09/17 13:39:48;;;;;;;;;;;17.90;60.60;;;;;;5051569;28;19925;-65
2021/09/17 13:42:14;;;;;;;;;;;17.80;61.10;;;;;;5050848;28;20289;-65
2021/09/17 13:44:40;;;;;;;;;;;17.90;61.90;;;;;;5051568;28;19917;-64
2021/09/17 13:47:05;;;;;;;;;;;18.10;62.10;;;;;;5054943;28;20427;-65
2021/09/17 13:49:31;;;;;;;;;;;18.30;61.80;;;;;;5055032;28;19917;-65
2021/09/17 13:51:56;;;;;;;;;;;18.40;61.50;;;;;;5037555;28;19916;-65
2021/09/17 13:54:22;;;;;;;;;;;18.30;60.60;;;;;;5054681;28;20293;-64
2021/09/17 13:56:47;;;;;;;;;;;18.20;60.60;;;;;;5055191;28;19999;-64
2021/09/17 13:59:13;;;;;;;;;;;18.20;60.70;;;;;;5054741;28;19949;-65
2021/09/17 14:01:38;;;;;;;;;;;18.10;61.50;;;;;;5055034;28;19917;-65
2021/09/17 14:04:05;;;;;;;;;;;18.20;61.70;;;;;;5054189;28;20496;-64
2021/09/17 14:06:30;;;;;;;;;;;18.20;61.10;;;;;;5054550;28;19920;-63
2021/09/17 14:08:56;;;;;;;;;;;18.20;60.80;;;;;;5053647;28;20284;-65
2021/09/17 14:11:21;;;;;;;;;;;18.10;61.30;;;;;;5054656;28;20357;-64
2021/09/17 14:13:47;;;;;;;;;;;18.20;61.70;;;;;;5054774;28;19955;-64
2021/09/17 14:16:13;;;;;;;;;;;18.30;61.90;;;;;;5054058;28;19921;-63